sensor_id;sensor_type;location;lat;lon;timestamp;P1;durP1;ratioP1;P2;durP2;ratioP2
29412;SDS011;16389;50.126;8.450;2022-11-15T00:02:26;11.75;;;5.45;;
29412;SDS011;16389;50.126;8.450;2022-11-15T00:04:59;8.10;;;6.50;;
29412;SDS011;16389;50.126;8.450;2022-11-15T00:07:31;7.35;;;5.65;;
29412;SDS011;16389;50.126;8.450;2022-11-15T00:10:00;7.43;;;5.50;;
29412;SDS011;16389;50.126;8.450;2022-11-15T00:12:29;5.78;;;4.68;;
29412;SDS011;16389;50.126;8.450;2022-11-15T00:15:02;8.57;;;5.35;;
29412;SDS011;16389;50.126;8.450;2022-11-15T00:17:30;7.80;;;4.80;;
29412;SDS011;16389;50.126;8.450;2022-11-15T00:20:03;7.97;;;5.63;;
29412;SDS011;16389;50.126;8.450;2022-11-15T00:22:43;7.47;;;5.38;;
29412;SDS011;16389;50.126;8.450;2022-11-15T00:25:11;8.85;;;5.10;;
29412;SDS011;16389;50.126;8.450;2022-11-15T00:27:39;6.75;;;4.50;;
29412;SDS011;16389;50.126;8.450;2022-11-15T00:30:09;5.80;;;3.83;;
29412;SDS011;16389;50.126;8.450;2022-11-15T00:32:40;8.30;;;4.50;;
29412;SDS011;16389;50.126;8.450;2022-11-15T00:35:10;8.02;;;6.32;;
29412;SDS011;16389;50.126;8.450;2022-11-15T00:37:38;5.53;;;4.93;;
29412;SDS011;16389;50.126;8.450;2022-11-15T00:40:10;9.88;;;5.82;;
29412;SDS011;16389;50.126;8.450;2022-11-15T00:42:47;7.28;;;4.75;;
29412;SDS011;16389;50.126;8.450;2022-11-15T00:45:21;7.82;;;4.95;;
29412;SDS011;16389;50.126;8.450;2022-11-15T00:47:50;7.18;;;5.18;;
29412;SDS011;16389;50.126;8.450;2022-11-15T00:50:21;6.45;;;4.72;;
29412;SDS011;16389;50.126;8.450;2022-11-15T00:52:52;7.50;;;4.70;;
29412;SDS011;16389;50.126;8.450;2022-11-15T00:55:25;5.32;;;3.88;;
29412;SDS011;16389;50.126;8.450;2022-11-15T00:57:54;5.65;;;4.43;;
29412;SDS011;16389;50.126;8.450;2022-11-15T01:02:54;4.28;;;3.38;;
29412;SDS011;16389;50.126;8.450;2022-11-15T01:05:26;10.82;;;5.60;;
29412;SDS011;16389;50.126;8.450;2022-11-15T01:07:56;11.07;;;4.88;;
29412;SDS011;16389;50.126;8.450;2022-11-15T01:10:37;4.97;;;4.47;;
29412;SDS011;16389;50.126;8.450;2022-11-15T01:13:44;7.95;;;4.50;;
29412;SDS011;16389;50.126;8.450;2022-11-15T01:16:17;6.43;;;4.30;;
29412;SDS011;16389;50.126;8.450;2022-11-15T01:18:53;4.78;;;4.28;;
29412;SDS011;16389;50.126;8.450;2022-11-15T01:21:20;8.60;;;4.63;;
29412;SDS011;16389;50.126;8.450;2022-11-15T01:23:52;9.68;;;5.18;;
29412;SDS011;16389;50.126;8.450;2022-11-15T01:26:27;6.55;;;3.75;;
29412;SDS011;16389;50.126;8.450;2022-11-15T01:28:58;7.72;;;5.13;;
29412;SDS011;16389;50.126;8.450;2022-11-15T01:31:25;15.88;;;4.97;;
29412;SDS011;16389;50.126;8.450;2022-11-15T01:33:52;16.00;;;6.18;;
29412;SDS011;16389;50.126;8.450;2022-11-15T01:36:20;8.18;;;4.63;;
29412;SDS011;16389;50.126;8.450;2022-11-15T01:38:58;8.95;;;6.18;;
29412;SDS011;16389;50.126;8.450;2022-11-15T01:41:36;6.00;;;4.57;;
29412;SDS011;16389;50.126;8.450;2022-11-15T01:47:19;5.90;;;5.05;;
29412;SDS011;16389;50.126;8.450;2022-11-15T01:50:27;6.20;;;4.75;;
29412;SDS011;16389;50.126;8.450;2022-11-15T01:53:05;6.78;;;5.28;;
29412;SDS011;16389;50.126;8.450;2022-11-15T01:55:45;7.68;;;4.55;;
29412;SDS011;16389;50.126;8.450;2022-11-15T01:58:18;7.18;;;5.70;;
29412;SDS011;16389;50.126;8.450;2022-11-15T02:00:44;8.05;;;6.53;;
29412;SDS011;16389;50.126;8.450;2022-11-15T02:03:10;10.43;;;5.55;;
29412;SDS011;16389;50.126;8.450;2022-11-15T02:05:35;9.55;;;5.50;;
29412;SDS011;16389;50.126;8.450;2022-11-15T02:08:02;7.75;;;6.30;;
29412;SDS011;16389;50.126;8.450;2022-11-15T02:10:28;7.10;;;5.43;;
29412;SDS011;16389;50.126;8.450;2022-11-15T02:12:53;6.90;;;5.75;;
29412;SDS011;16389;50.126;8.450;2022-11-15T02:15:21;9.07;;;6.40;;
29412;SDS011;16389;50.126;8.450;2022-11-15T02:34:46;13.30;;;8.25;;
29412;SDS011;16389;50.126;8.450;2022-11-15T02:37:29;8.85;;;6.38;;
29412;SDS011;16389;50.126;8.450;2022-11-15T02:42:50;8.45;;;5.82;;
29412;SDS011;16389;50.126;8.450;2022-11-15T02:45:39;6.00;;;5.20;;
29412;SDS011;16389;50.126;8.450;2022-11-15T02:48:10;5.90;;;4.57;;
29412;SDS011;16389;50.126;8.450;2022-11-15T02:50:37;7.68;;;6.05;;
29412;SDS011;16389;50.126;8.450;2022-11-15T02:53:03;8.05;;;5.68;;
29412;SDS011;16389;50.126;8.450;2022-11-15T02:55:33;8.73;;;5.63;;
29412;SDS011;16389;50.126;8.450;2022-11-15T03:00:35;10.18;;;4.07;;
29412;SDS011;16389;50.126;8.450;2022-11-15T03:03:16;10.43;;;3.80;;
29412;SDS011;16389;50.126;8.450;2022-11-15T03:11:24;4.43;;;3.70;;
29412;SDS011;16389;50.126;8.450;2022-11-15T03:19:07;6.82;;;4.22;;
29412;SDS011;16389;50.126;8.450;2022-11-15T03:21:57;9.00;;;3.65;;
29412;SDS011;16389;50.126;8.450;2022-11-15T03:24:25;7.10;;;3.85;;
29412;SDS011;16389;50.126;8.450;2022-11-15T03:26:55;5.53;;;3.90;;
29412;SDS011;16389;50.126;8.450;2022-11-15T03:29:24;3.55;;;3.20;;
29412;SDS011;16389;50.126;8.450;2022-11-15T03:31:58;5.70;;;3.15;;
29412;SDS011;16389;50.126;8.450;2022-11-15T03:34:27;5.13;;;3.38;;
29412;SDS011;16389;50.126;8.450;2022-11-15T03:36:55;5.93;;;4.15;;
29412;SDS011;16389;50.126;8.450;2022-11-15T03:39:21;7.07;;;4.32;;
29412;SDS011;16389;50.126;8.450;2022-11-15T03:41:56;5.40;;;3.55;;
29412;SDS011;16389;50.126;8.450;2022-11-15T03:49:49;5.13;;;3.08;;
29412;SDS011;16389;50.126;8.450;2022-11-15T03:52:18;4.75;;;3.20;;
29412;SDS011;16389;50.126;8.450;2022-11-15T03:54:49;4.00;;;3.38;;
29412;SDS011;16389;50.126;8.450;2022-11-15T03:57:19;5.00;;;3.15;;
29412;SDS011;16389;50.126;8.450;2022-11-15T03:59:45;6.07;;;2.90;;
29412;SDS011;16389;50.126;8.450;2022-11-15T04:02:11;4.80;;;3.25;;
29412;SDS011;16389;50.126;8.450;2022-11-15T04:04:37;3.55;;;2.65;;
29412;SDS011;16389;50.126;8.450;2022-11-15T04:07:03;4.22;;;3.00;;
29412;SDS011;16389;50.126;8.450;2022-11-15T04:09:29;4.18;;;3.03;;
29412;SDS011;16389;50.126;8.450;2022-11-15T04:11:54;5.05;;;3.15;;
29412;SDS011;16389;50.126;8.450;2022-11-15T04:14:20;3.92;;;2.92;;
29412;SDS011;16389;50.126;8.450;2022-11-15T04:16:46;5.57;;;3.65;;
29412;SDS011;16389;50.126;8.450;2022-11-15T04:19:11;4.82;;;3.40;;
29412;SDS011;16389;50.126;8.450;2022-11-15T04:21:55;4.65;;;3.60;;
29412;SDS011;16389;50.126;8.450;2022-11-15T04:24:40;5.05;;;3.50;;
29412;SDS011;16389;50.126;8.450;2022-11-15T04:27:05;5.03;;;2.65;;
29412;SDS011;16389;50.126;8.450;2022-11-15T04:29:31;3.97;;;3.00;;
29412;SDS011;16389;50.126;8.450;2022-11-15T04:32:00;4.15;;;3.00;;
29412;SDS011;16389;50.126;8.450;2022-11-15T04:34:27;7.05;;;3.33;;
29412;SDS011;16389;50.126;8.450;2022-11-15T04:36:52;3.97;;;2.53;;
29412;SDS011;16389;50.126;8.450;2022-11-15T04:39:36;4.43;;;3.20;;
29412;SDS011;16389;50.126;8.450;2022-11-15T04:42:02;4.32;;;3.42;;
29412;SDS011;16389;50.126;8.450;2022-11-15T04:44:28;4.43;;;2.65;;
29412;SDS011;16389;50.126;8.450;2022-11-15T04:46:53;4.30;;;3.22;;
29412;SDS011;16389;50.126;8.450;2022-11-15T04:49:19;3.88;;;2.33;;
29412;SDS011;16389;50.126;8.450;2022-11-15T04:51:44;5.03;;;2.58;;
29412;SDS011;16389;50.126;8.450;2022-11-15T04:54:10;3.10;;;2.42;;
29412;SDS011;16389;50.126;8.450;2022-11-15T04:56:36;3.10;;;2.13;;
29412;SDS011;16389;50.126;8.450;2022-11-15T04:59:01;3.50;;;2.50;;
29412;SDS011;16389;50.126;8.450;2022-11-15T05:01:27;3.95;;;2.67;;
29412;SDS011;16389;50.126;8.450;2022-11-15T05:03:53;3.17;;;2.25;;
29412;SDS011;16389;50.126;8.450;2022-11-15T05:06:37;3.28;;;2.13;;
29412;SDS011;16389;50.126;8.450;2022-11-15T05:09:04;2.50;;;1.98;;
29412;SDS011;16389;50.126;8.450;2022-11-15T05:11:30;2.38;;;2.17;;
29412;SDS011;16389;50.126;8.450;2022-11-15T05:13:57;3.50;;;2.38;;
29412;SDS011;16389;50.126;8.450;2022-11-15T05:16:24;2.53;;;2.10;;
29412;SDS011;16389;50.126;8.450;2022-11-15T05:18:52;2.95;;;2.70;;
29412;SDS011;16389;50.126;8.450;2022-11-15T05:21:23;4.78;;;3.20;;
29412;SDS011;16389;50.126;8.450;2022-11-15T05:27:00;5.28;;;3.00;;
29412;SDS011;16389;50.126;8.450;2022-11-15T05:29:28;4.55;;;2.67;;
29412;SDS011;16389;50.126;8.450;2022-11-15T05:31:56;3.75;;;2.85;;
29412;SDS011;16389;50.126;8.450;2022-11-15T05:34:29;4.07;;;2.70;;
29412;SDS011;16389;50.126;8.450;2022-11-15T05:37:07;3.85;;;2.35;;
